createdAt,value
2023-03-26T00:02:56.638Z,94207.00
2023-03-26T00:06:56.667Z,94207.00
2023-03-26T00:10:56.751Z,94207.00
2023-03-26T00:14:56.848Z,94207.00
2023-03-26T00:18:56.864Z,94205.00
2023-03-26T00:22:56.947Z,94205.00
2023-03-26T00:26:57.005Z,94199.00
2023-03-26T00:30:57.092Z,94201.00
2023-03-26T00:34:57.196Z,94191.00
2023-03-26T00:38:57.330Z,94189.00
2023-03-26T00:42:57.452Z,94191.00
2023-03-26T00:46:57.626Z,94197.00
2023-03-26T00:50:57.830Z,94189.00
2023-03-26T00:54:57.954Z,94185.00
2023-03-26T00:58:58.130Z,94175.00
2023-03-26T01:02:58.377Z,94169.00
2023-03-26T01:06:58.469Z,94163.00
2023-03-26T01:10:58.665Z,94163.00
2023-03-26T01:14:58.798Z,94169.00
2023-03-26T01:18:58.990Z,94175.00
2023-03-26T01:22:59.145Z,94175.00
2023-03-26T01:26:59.108Z,94167.00
2023-03-26T01:30:59.136Z,94156.00
2023-03-26T01:34:59.046Z,94156.00
2023-03-26T01:38:59.396Z,94148.00
2023-03-26T01:42:58.977Z,94148.00
2023-03-26T01:46:58.956Z,94152.00
2023-03-26T01:50:58.936Z,94150.00
2023-03-26T01:54:58.853Z,94144.00
2023-03-26T01:58:58.814Z,94154.00
2023-03-26T02:02:58.843Z,94156.00
2023-03-26T02:06:58.761Z,94162.00
2023-03-26T02:10:58.718Z,94160.00
2023-03-26T02:14:58.680Z,94162.00
2023-03-26T02:18:58.632Z,94154.00
2023-03-26T02:22:58.609Z,94158.00
2023-03-26T02:26:58.584Z,94152.00
2023-03-26T02:30:58.520Z,94146.00
2023-03-26T02:34:58.498Z,94136.00
2023-03-26T02:38:58.436Z,94146.00
2023-03-26T02:42:58.436Z,94140.00
2023-03-26T02:46:58.459Z,94150.00
2023-03-26T02:50:58.569Z,94146.00
2023-03-26T02:54:58.732Z,94136.00
2023-03-26T02:58:58.856Z,94128.00
2023-03-26T03:02:59.125Z,94132.00
2023-03-26T03:06:59.102Z,94128.00
2023-03-26T03:10:59.064Z,94109.00
2023-03-26T03:14:59.022Z,94101.00
2023-03-26T03:18:58.994Z,94101.00
2023-03-26T03:22:58.967Z,94093.00
2023-03-26T03:26:58.932Z,94087.00
2023-03-26T03:30:59.044Z,94079.00
2023-03-26T03:34:58.856Z,94077.00
2023-03-26T03:38:58.809Z,94083.00
2023-03-26T03:42:58.764Z,94085.00
2023-03-26T03:46:58.754Z,94077.00
2023-03-26T03:50:58.721Z,94077.00
2023-03-26T03:54:58.822Z,94071.00
2023-03-26T03:58:58.807Z,94069.00
2023-03-26T04:02:58.838Z,94073.00
2023-03-26T04:06:58.738Z,94062.00
2023-03-26T04:10:58.680Z,94062.00
2023-03-26T04:14:58.663Z,94063.00
2023-03-26T04:18:58.632Z,94060.00
2023-03-26T04:22:58.563Z,94058.00
2023-03-26T04:26:58.541Z,94050.00
2023-03-26T04:30:58.548Z,94046.00
2023-03-26T04:34:58.478Z,94040.00
2023-03-26T04:38:58.595Z,94044.00
2023-03-26T04:42:58.514Z,94034.00
2023-03-26T04:46:58.540Z,94018.00
2023-03-26T04:50:58.438Z,94015.00
2023-03-26T04:54:58.406Z,94005.00
2023-03-26T04:58:58.346Z,93997.00
2023-03-26T05:02:58.364Z,93995.00
2023-03-26T05:06:58.335Z,93999.00
2023-03-26T05:10:58.263Z,94003.00
2023-03-26T05:14:58.208Z,94013.00
2023-03-26T05:18:58.291Z,94013.00
2023-03-26T05:22:58.201Z,94011.00
2023-03-26T05:26:58.165Z,94009.00
2023-03-26T05:30:58.139Z,93999.00
2023-03-26T05:34:58.130Z,93999.00
2023-03-26T05:38:58.068Z,93991.00
2023-03-26T05:42:58.028Z,93977.00
2023-03-26T05:46:57.984Z,93975.00
2023-03-26T05:50:58.008Z,93965.00
2023-03-26T05:54:57.910Z,93956.00
2023-03-26T05:58:57.886Z,93956.00
2023-03-26T06:02:58.143Z,93960.00
2023-03-26T06:06:58.242Z,93954.00
2023-03-26T06:10:58.504Z,93952.00
2023-03-26T06:14:58.655Z,93960.00
2023-03-26T06:18:58.934Z,93952.00
2023-03-26T06:22:58.842Z,93948.00
2023-03-26T06:26:58.801Z,93952.00
2023-03-26T06:30:58.764Z,93946.00
2023-03-26T06:34:58.721Z,93950.00
2023-03-26T06:38:58.684Z,93944.00
2023-03-26T06:43:08.226Z,93934.00
2023-03-26T06:46:59.647Z,93914.00
2023-03-26T06:50:58.580Z,93914.00
2023-03-26T06:54:58.539Z,93901.00
2023-03-26T06:58:58.522Z,93891.00
2023-03-26T07:02:58.575Z,93871.00
2023-03-26T07:06:58.544Z,93866.00
2023-03-26T07:10:58.578Z,93850.00
2023-03-26T07:15:00.398Z,93846.00
2023-03-26T07:18:58.705Z,93842.00
2023-03-26T07:22:58.667Z,93848.00
2023-03-26T07:26:58.663Z,93864.00
2023-03-26T07:30:58.587Z,93864.00
2023-03-26T07:34:58.545Z,93866.00
2023-03-26T07:38:58.509Z,93842.00
2023-03-26T07:42:58.470Z,93828.00
2023-03-26T07:46:58.481Z,93811.00
2023-03-26T07:50:58.416Z,93791.00
2023-03-26T07:54:58.377Z,93774.00
2023-03-26T07:58:58.347Z,93752.00
2023-03-26T08:02:58.405Z,93736.00
2023-03-26T08:06:58.269Z,93732.00
2023-03-26T08:10:58.233Z,93723.00
2023-03-26T08:14:58.370Z,93723.00
2023-03-26T08:18:58.537Z,93715.00
2023-03-26T08:22:58.641Z,93693.00
2023-03-26T08:26:58.669Z,93689.00
2023-03-26T08:30:58.781Z,93681.00
2023-03-26T08:34:58.935Z,93681.00
2023-03-26T08:38:58.908Z,93668.00
2023-03-26T08:42:58.854Z,93666.00
2023-03-26T08:46:58.835Z,93670.00
2023-03-26T08:50:58.783Z,93662.00
2023-03-26T08:54:58.765Z,93662.00
2023-03-26T08:58:58.722Z,93662.00
2023-03-26T09:02:58.747Z,93664.00
2023-03-26T09:06:58.657Z,93673.00
2023-03-26T09:10:58.609Z,93681.00
2023-03-26T09:14:58.571Z,93689.00
2023-03-26T09:18:58.646Z,93693.00
2023-03-26T09:22:58.634Z,93677.00
2023-03-26T09:26:58.596Z,93673.00
2023-03-26T09:30:58.542Z,93666.00
2023-03-26T09:34:58.529Z,93656.00
2023-03-26T09:38:58.476Z,93642.00
2023-03-26T09:42:58.439Z,93636.00
2023-03-26T09:46:58.402Z,93615.00
2023-03-26T09:50:58.694Z,93589.00
2023-03-26T09:54:58.330Z,93585.00
2023-03-26T09:58:58.280Z,93581.00
2023-03-26T10:02:58.311Z,93574.00
2023-03-26T10:06:58.412Z,93568.00
2023-03-26T10:10:58.547Z,93562.00
2023-03-26T10:14:58.623Z,93566.00
2023-03-26T10:18:58.716Z,93570.00
2023-03-26T10:22:58.839Z,93574.00
2023-03-26T10:27:09.940Z,93576.00
2023-03-26T10:30:59.913Z,93581.00
2023-03-26T10:34:58.877Z,93578.00
2023-03-26T10:38:58.821Z,93580.00
2023-03-26T10:42:58.769Z,93572.00
2023-03-26T10:46:58.830Z,93574.00
2023-03-26T10:50:58.909Z,93558.00
2023-03-26T10:54:58.958Z,93562.00
2023-03-26T10:58:59.051Z,93560.00
2023-03-26T11:02:59.159Z,93556.00
2023-03-26T11:06:59.180Z,93556.00
2023-03-26T11:10:59.222Z,93550.00
2023-03-26T11:14:59.197Z,93542.00
2023-03-26T11:18:59.321Z,93550.00
2023-03-26T11:23:40.991Z,93554.00
2023-03-26T11:27:40.947Z,93560.00
2023-03-26T11:31:40.935Z,93554.00
2023-03-26T11:35:41.736Z,93533.00
2023-03-26T11:39:40.824Z,93538.00
2023-03-26T11:43:40.785Z,93538.00
2023-03-26T11:47:40.760Z,93527.00
2023-03-26T11:51:40.720Z,93523.00
2023-03-26T11:55:40.785Z,93527.00
2023-03-26T11:59:53.310Z,93523.00
2023-03-26T12:03:41.961Z,93513.00
2023-03-26T12:07:40.912Z,93497.00
2023-03-26T12:11:40.888Z,93493.00
2023-03-26T12:15:40.992Z,93483.00
2023-03-26T12:19:41.155Z,93487.00
2023-03-26T12:23:41.273Z,93491.00
2023-03-26T12:27:41.398Z,93493.00
2023-03-26T12:31:41.505Z,93507.00
2023-03-26T12:35:41.649Z,93542.00
2023-03-26T12:40:06.646Z,93517.00
2023-03-26T12:44:50.059Z,93527.00
2023-03-26T12:47:57.630Z,93538.00
2023-03-26T12:51:42.712Z,93544.00
2023-03-26T12:55:41.657Z,93534.00
2023-03-26T12:59:41.645Z,93533.00
2023-03-26T13:03:41.616Z,93529.00
2023-03-26T13:07:41.589Z,93521.00
2023-03-26T13:13:56.936Z,93521.00
2023-03-26T13:17:56.963Z,93511.00
2023-03-26T13:21:56.884Z,93511.00
2023-03-26T13:25:56.819Z,93505.00
2023-03-26T13:29:56.932Z,93509.00
2023-03-26T13:33:56.782Z,93503.00
2023-03-26T13:37:56.739Z,93505.00
2023-03-26T13:41:56.665Z,93503.00
2023-03-26T13:45:56.680Z,93505.00
2023-03-26T13:49:56.599Z,93497.00
2023-03-26T13:53:56.563Z,93495.00
2023-03-26T13:57:56.532Z,93495.00
2023-03-26T14:01:56.522Z,93491.00
2023-03-26T14:05:56.655Z,93501.00
2023-03-26T14:09:56.895Z,93505.00
2023-03-26T14:13:57.025Z,93513.00
2023-03-26T14:17:57.206Z,93511.00
2023-03-26T14:21:57.152Z,93507.00
2023-03-26T14:25:57.124Z,93503.00
2023-03-26T14:29:57.695Z,93509.00
2023-03-26T14:33:57.035Z,93493.00
2023-03-26T14:37:57.013Z,93491.00
2023-03-26T14:41:56.973Z,93474.00
2023-03-26T14:45:56.923Z,93470.00
2023-03-26T14:49:56.895Z,93479.00
2023-03-26T14:53:56.849Z,93493.00
2023-03-26T14:57:56.817Z,93501.00
2023-03-26T15:01:56.851Z,93497.00
2023-03-26T15:05:56.733Z,93493.00
2023-03-26T15:09:56.698Z,93499.00
2023-03-26T15:13:56.693Z,93497.00
2023-03-26T15:17:56.677Z,93497.00
2023-03-26T15:21:56.847Z,93489.00
2023-03-26T15:25:57.023Z,93495.00
2023-03-26T15:29:57.205Z,93481.00
2023-03-26T15:33:57.392Z,93464.00
2023-03-26T15:37:57.604Z,93438.00
2023-03-26T15:41:57.846Z,93454.00
2023-03-26T15:45:58.100Z,93452.00
2023-03-26T15:49:58.232Z,93436.00
2023-03-26T15:53:58.405Z,93436.00
2023-03-26T15:57:58.619Z,93434.00
2023-03-26T16:01:58.618Z,93431.00
2023-03-26T16:05:58.548Z,93432.00
2023-03-26T16:09:58.556Z,93425.00
2023-03-26T16:13:58.450Z,93417.00
2023-03-26T16:17:58.457Z,93419.00
2023-03-26T16:21:58.380Z,93413.00
2023-03-26T16:25:58.360Z,93413.00
2023-03-26T16:29:58.325Z,93403.00
2023-03-26T16:33:58.272Z,93393.00
2023-03-26T16:37:58.250Z,93389.00
2023-03-26T16:42:06.453Z,93385.00
2023-03-26T16:45:59.310Z,93377.00
2023-03-26T16:50:08.603Z,93366.00
2023-03-26T16:53:59.228Z,93364.00
2023-03-26T16:57:58.242Z,93368.00
2023-03-26T17:01:58.502Z,93372.00
2023-03-26T17:05:58.645Z,93366.00
2023-03-26T17:09:58.616Z,93368.00
2023-03-26T17:13:58.585Z,93368.00
2023-03-26T17:17:58.613Z,93374.00
2023-03-26T17:21:58.489Z,93389.00
2023-03-26T17:25:58.476Z,93377.00
2023-03-26T17:29:58.433Z,93379.00
2023-03-26T17:33:58.392Z,93411.00
2023-03-26T17:37:58.360Z,93405.00
2023-03-26T17:41:58.323Z,93409.00
2023-03-26T17:46:03.333Z,93405.00
2023-03-26T17:49:59.285Z,93409.00
2023-03-26T17:53:58.213Z,93438.00
2023-03-26T17:57:58.200Z,93446.00
2023-03-26T18:01:58.129Z,93458.00
2023-03-26T18:05:58.288Z,93458.00
2023-03-26T18:09:58.044Z,93448.00
2023-03-26T18:13:58.084Z,93440.00
2023-03-26T18:17:58.208Z,93440.00
2023-03-26T18:21:58.184Z,93425.00
2023-03-26T18:25:58.265Z,93403.00
2023-03-26T18:30:02.825Z,93411.00
2023-03-26T18:33:58.361Z,93427.00
2023-03-26T18:37:58.319Z,93423.00
2023-03-26T18:41:58.326Z,93409.00
2023-03-26T18:45:58.517Z,93405.00
2023-03-26T18:49:58.610Z,93393.00
2023-03-26T18:53:58.690Z,93391.00
2023-03-26T18:57:58.759Z,93395.00
2023-03-26T19:01:58.874Z,93403.00
2023-03-26T19:05:58.785Z,93413.00
2023-03-26T19:09:58.822Z,93421.00
2023-03-26T19:13:58.864Z,93429.00
2023-03-26T19:17:58.928Z,93429.00
2023-03-26T19:21:59.731Z,93450.00
2023-03-26T19:25:58.930Z,93442.00
2023-03-26T19:29:59.055Z,93446.00
2023-03-26T19:33:59.192Z,93446.00
2023-03-26T19:37:59.299Z,93454.00
2023-03-26T19:41:59.334Z,93450.00
2023-03-26T19:46:01.216Z,93444.00
2023-03-26T19:49:59.562Z,93440.00
2023-03-26T19:53:59.708Z,93425.00
2023-03-26T19:57:59.871Z,93423.00
2023-03-26T20:02:00.066Z,93417.00
2023-03-26T20:06:00.191Z,93427.00
2023-03-26T20:10:01.142Z,93425.00
2023-03-26T20:14:00.518Z,93421.00
2023-03-26T20:18:00.784Z,93421.00
2023-03-26T20:22:00.825Z,93423.00
2023-03-26T20:26:00.891Z,93434.00
2023-03-26T20:30:00.963Z,93432.00
2023-03-26T20:34:01.101Z,93421.00
2023-03-26T20:38:01.218Z,93421.00
2023-03-26T20:42:01.290Z,93425.00
2023-03-26T20:46:01.402Z,93423.00
2023-03-26T20:50:01.501Z,93425.00
2023-03-26T20:54:01.662Z,93423.00
2023-03-26T20:58:01.832Z,93419.00
2023-03-26T21:02:02.059Z,93421.00
2023-03-26T21:06:02.177Z,93421.00
2023-03-26T21:10:02.324Z,93423.00
2023-03-26T21:14:02.276Z,93429.00
2023-03-26T21:18:02.284Z,93431.00
2023-03-26T21:22:02.230Z,93427.00
2023-03-26T21:26:02.170Z,93427.00
2023-03-26T21:30:02.143Z,93421.00
2023-03-26T21:34:02.094Z,93417.00
2023-03-26T21:38:02.051Z,93409.00
2023-03-26T21:42:05.292Z,93405.00
2023-03-26T21:46:02.028Z,93407.00
2023-03-26T21:50:01.968Z,93409.00
2023-03-26T21:54:01.915Z,93407.00
2023-03-26T21:58:01.856Z,93413.00
2023-03-26T22:02:01.838Z,93413.00
2023-03-26T22:06:01.791Z,93411.00
2023-03-26T22:10:01.754Z,93415.00
2023-03-26T22:14:01.779Z,93421.00
2023-03-26T22:18:01.950Z,93415.00
2023-03-26T22:22:01.973Z,93401.00
2023-03-26T22:26:02.083Z,93405.00
2023-03-26T22:30:02.161Z,93409.00
2023-03-26T22:34:02.201Z,93401.00
2023-03-26T22:38:02.273Z,93401.00
2023-03-26T22:42:02.360Z,93397.00
2023-03-26T22:46:02.554Z,93389.00
2023-03-26T22:50:02.676Z,93391.00
2023-03-26T22:54:02.867Z,93385.00
2023-03-26T22:58:03.042Z,93385.00
2023-03-26T23:02:03.088Z,93379.00
2023-03-26T23:06:03.007Z,93379.00
2023-03-26T23:10:02.946Z,93376.00
2023-03-26T23:14:02.894Z,93381.00
2023-03-26T23:18:02.915Z,93389.00
2023-03-26T23:22:02.817Z,93381.00
2023-03-26T23:26:02.789Z,93381.00
2023-03-26T23:30:02.753Z,93379.00
2023-03-26T23:34:02.712Z,93379.00
2023-03-26T23:38:02.674Z,93370.00
2023-03-26T23:42:02.649Z,93366.00
2023-03-26T23:46:02.682Z,93358.00
2023-03-26T23:50:02.557Z,93370.00
2023-03-26T23:54:02.532Z,93364.00
2023-03-26T23:58:02.475Z,93362.00
